createdAt,value
2016-02-20T00:00:27.261Z,0.51
2016-02-20T00:00:55.326Z,0.56
2016-02-20T00:03:05.160Z,0.59
2016-02-20T00:05:31.935Z,0.7
2016-02-20T00:06:41.463Z,0.7
2016-02-20T00:07:15.809Z,0.7
2016-02-20T00:10:15.880Z,0.77
2016-02-20T00:10:50.239Z,0.74
2016-02-20T00:12:52.872Z,0.89
2016-02-20T00:14:02.469Z,0.91
2016-02-20T00:14:55.987Z,0.89
2016-02-20T00:16:11.193Z,0.92
2016-02-20T00:17:05.586Z,0.86
2016-02-20T00:18:20.792Z,0.94
2016-02-20T00:19:08.701Z,0.94
2016-02-20T00:20:21.407Z,1.04
2016-02-20T00:22:05.288Z,1.09
2016-02-20T00:23:05.321Z,1.07
2016-02-20T00:24:20.527Z,1.13
2016-02-20T00:25:20.545Z,1.07
2016-02-20T00:26:33.282Z,1.13
2016-02-20T00:27:26.878Z,1.09
2016-02-20T00:28:39.882Z,1.13
2016-02-20T00:29:33.337Z,1.09
2016-02-20T00:30:51.751Z,1.2
2016-02-20T00:31:33.426Z,1.18
2016-02-20T00:32:21.148Z,1.21
2016-02-20T00:33:40.478Z,1.16
2016-02-20T00:34:59.062Z,1.2
2016-02-20T00:35:49.187Z,1.1
2016-02-20T00:36:42.970Z,1.21
2016-02-20T00:37:55.694Z,1.22
2016-02-20T00:38:55.697Z,1.22
2016-02-20T00:40:14.309Z,1.2
2016-02-20T00:41:04.468Z,1.27
2016-02-20T00:42:17.393Z,1.3
2016-02-20T00:43:32.583Z,1.25
2016-02-20T00:44:16.539Z,1.31
2016-02-20T00:45:16.682Z,1.38
2016-02-20T00:46:22.919Z,1.34
2016-02-20T00:47:29.281Z,1.4
2016-02-20T00:48:35.800Z,1.3
2016-02-20T00:49:35.802Z,1.31
2016-02-20T00:50:47.914Z,1.36
2016-02-20T00:51:42.292Z,1.42
2016-02-20T00:52:16.623Z,1.43
2016-02-20T00:54:31.831Z,1.46
2016-02-20T00:55:31.850Z,1.5
2016-02-20T00:56:44.571Z,1.36
2016-02-20T00:57:44.605Z,1.36
2016-02-20T00:58:51.139Z,1.46
2016-02-20T01:00:32.003Z,1.52
2016-02-20T01:01:06.975Z,1.6
2016-02-20T01:02:01.322Z,1.56
2016-02-20T01:03:13.511Z,1.61
2016-02-20T01:04:32.046Z,1.63
2016-02-20T01:05:15.767Z,1.6
2016-02-20T01:06:41.457Z,1.57
2016-02-20T01:07:44.586Z,1.63
2016-02-20T01:08:25.353Z,1.61
2016-02-20T01:09:56.652Z,1.57
2016-02-20T01:10:40.547Z,1.7
2016-02-20T01:12:43.864Z,1.68
2016-02-20T01:13:09.242Z,1.75
2016-02-20T01:14:15.730Z,1.84
2016-02-20T01:14:59.653Z,1.74
2016-02-20T01:16:25.359Z,1.78
2016-02-20T01:17:09.237Z,1.79
2016-02-20T01:18:21.975Z,1.75
2016-02-20T01:19:09.321Z,1.92
2016-02-20T01:21:06.846Z,1.88
2016-02-20T01:21:25.784Z,1.86
2016-02-20T01:22:31.396Z,1.93
2016-02-20T01:23:27.993Z,1.95
2016-02-20T01:24:28.027Z,2.01
2016-02-20T01:25:40.763Z,1.93
2016-02-20T01:26:28.750Z,2.04
2016-02-20T01:27:47.284Z,2.01
2016-02-20T01:28:29.678Z,2.03
2016-02-20T01:30:43.245Z,2.15
2016-02-20T01:32:02.470Z,2.14
2016-02-20T01:33:08.691Z,2.19
2016-02-20T01:34:05.662Z,2.19
2016-02-20T01:36:30.199Z,2.21
2016-02-20T01:38:01.595Z,2.18
2016-02-20T01:38:45.502Z,2.23
2016-02-20T01:40:11.164Z,2.19
2016-02-20T01:40:49.367Z,2.26
2016-02-20T01:42:20.716Z,2.33
2016-02-20T01:43:04.624Z,2.33
2016-02-20T01:44:04.611Z,2.36
2016-02-20T01:45:04.645Z,2.33
2016-02-20T01:47:14.385Z,2.33
2016-02-20T01:48:27.138Z,2.39
2016-02-20T01:50:11.612Z,2.36
2016-02-20T01:50:38.362Z,2.41
2016-02-20T01:51:55.521Z,2.43
2016-02-20T01:53:05.135Z,2.47
2016-02-20T01:54:36.701Z,2.36
2016-02-20T01:55:14.954Z,2.4
2016-02-20T01:55:49.298Z,2.44
2016-02-20T01:57:20.599Z,2.5
2016-02-20T01:57:58.896Z,2.51
2016-02-20T02:00:14.076Z,2.51
2016-02-20T02:01:14.219Z,2.52
2016-02-20T02:02:26.848Z,2.54
2016-02-20T02:03:26.850Z,2.51
2016-02-20T02:04:39.803Z,2.54
2016-02-20T02:05:39.822Z,2.57
2016-02-20T02:06:45.465Z,2.61
2016-02-20T02:07:55.014Z,2.68
2016-02-20T02:08:55.032Z,2.61
2016-02-20T02:09:24.394Z,2.69
2016-02-20T02:10:23.772Z,2.59
2016-02-20T02:11:36.494Z,2.61
2016-02-20T02:12:25.216Z,2.57
2016-02-20T02:13:55.093Z,2.64
2016-02-20T02:14:38.955Z,2.69
2016-02-20T02:15:58.192Z,2.64
2016-02-20T02:16:54.804Z,2.69
2016-02-20T02:18:07.824Z,2.75
2016-02-20T02:19:01.280Z,2.85
2016-02-20T02:20:10.877Z,2.72
2016-02-20T02:20:45.158Z,2.8
2016-02-20T02:22:55.335Z,2.7
2016-02-20T02:25:10.515Z,2.7
2016-02-20T02:26:10.534Z,2.76
2016-02-20T02:27:16.802Z,2.72
2016-02-20T02:28:16.836Z,2.82
2016-02-20T02:29:23.307Z,2.82
2016-02-20T02:30:23.326Z,2.82
2016-02-20T02:31:29.797Z,2.83
2016-02-20T02:32:39.362Z,2.93
2016-02-20T02:34:48.915Z,2.97
2016-02-20T02:36:51.561Z,2.93
2016-02-20T02:37:04.110Z,2.93
2016-02-20T02:38:04.191Z,2.9
2016-02-20T02:39:16.866Z,2.88
2016-02-20T02:40:16.883Z,2.93
2016-02-20T02:41:23.355Z,2.91
2016-02-20T02:42:29.842Z,2.97
2016-02-20T02:43:35.533Z,2.93
2016-02-20T02:44:04.192Z,2.97
2016-02-20T02:45:35.538Z,2.9
2016-02-20T02:46:19.400Z,2.98
2016-02-20T02:47:19.418Z,3.03
2016-02-20T02:48:19.452Z,2.97
2016-02-20T02:49:25.736Z,2.98
2016-02-20T02:50:32.317Z,2.98
2016-02-20T02:51:32.195Z,3.03
2016-02-20T02:52:38.729Z,2.98
2016-02-20T02:53:19.512Z,3.05
2016-02-20T02:54:38.735Z,3.05
2016-02-20T02:55:24.049Z,3.09
2016-02-20T02:56:24.052Z,3.06
2016-02-20T02:57:24.680Z,3.15
2016-02-20T02:58:25.495Z,3.21
2016-02-20T02:59:24.138Z,3.19
2016-02-20T03:00:24.735Z,3.15
2016-02-20T03:01:30.988Z,3.21
2016-02-20T03:02:36.881Z,3.18
2016-02-20T03:03:36.883Z,3.22
2016-02-20T03:04:24.245Z,3.19
2016-02-20T03:05:49.873Z,3.26
2016-02-20T03:06:24.860Z,3.19
2016-02-20T03:08:39.381Z,3.24
2016-02-20T03:09:39.400Z,3.24
2016-02-20T03:10:39.417Z,3.22
2016-02-20T03:11:39.420Z,3.24
2016-02-20T03:12:39.439Z,3.3
2016-02-20T03:13:45.754Z,3.26
2016-02-20T03:14:45.758Z,3.24
2016-02-20T03:15:52.243Z,3.27
2016-02-20T03:16:58.731Z,3.4
2016-02-20T03:17:39.515Z,3.29
2016-02-20T03:18:58.971Z,3.33
2016-02-20T03:19:42.832Z,3.36
2016-02-20T03:21:08.526Z,3.3
2016-02-20T03:21:42.869Z,3.4
2016-02-20T03:23:15.609Z,3.43
2016-02-20T03:23:42.890Z,3.49
2016-02-20T03:24:42.910Z,3.43
2016-02-20T03:25:49.193Z,3.46
2016-02-20T03:26:42.180Z,3.43
2016-02-20T03:27:42.949Z,3.43
2016-02-20T03:28:50.654Z,3.49
2016-02-20T03:29:43.000Z,3.46
2016-02-20T03:30:43.004Z,3.49
2016-02-20T03:31:49.270Z,3.5
2016-02-20T03:33:40.011Z,3.56
2016-02-20T03:33:58.854Z,3.55
2016-02-20T03:34:52.576Z,3.63
2016-02-20T03:36:05.129Z,3.67
2016-02-20T03:37:11.819Z,3.59
2016-02-20T03:38:11.915Z,3.59
2016-02-20T03:39:12.058Z,3.67
2016-02-20T03:40:18.343Z,3.67
2016-02-20T03:41:12.095Z,3.63
2016-02-20T03:42:24.067Z,3.68
2016-02-20T03:42:52.723Z,3.67
2016-02-20T03:43:52.928Z,3.73
2016-02-20T03:45:18.434Z,3.74
2016-02-20T03:46:02.841Z,3.78
2016-02-20T03:47:27.986Z,3.76
2016-02-20T03:48:15.067Z,3.71
2016-02-20T03:49:33.711Z,3.85
2016-02-20T03:50:21.572Z,3.77
2016-02-20T03:51:02.416Z,3.78
2016-02-20T03:52:28.078Z,3.84
2016-02-20T03:53:43.299Z,3.95
2016-02-20T03:54:31.224Z,3.86
2016-02-20T03:55:43.368Z,3.84
2016-02-20T03:56:37.713Z,3.92
2016-02-20T03:57:21.623Z,3.99
2016-02-20T03:58:21.609Z,3.95
2016-02-20T03:59:21.612Z,4.02
2016-02-20T04:00:22.256Z,3.99
2016-02-20T04:01:27.899Z,3.95
2016-02-20T04:02:21.668Z,4.03
2016-02-20T04:03:40.889Z,3.92
2016-02-20T04:04:34.423Z,3.95
2016-02-20T04:05:40.909Z,4.03
2016-02-20T04:06:56.740Z,4
2016-02-20T04:07:43.993Z,4.03
2016-02-20T04:08:44.012Z,4.02
2016-02-20T04:09:44.031Z,4.02
2016-02-20T04:10:56.798Z,4
2016-02-20T04:11:50.348Z,4.07
2016-02-20T04:13:03.288Z,4.12
2016-02-20T04:13:47.166Z,4.03
2016-02-20T04:15:12.874Z,4.06
2016-02-20T04:16:22.408Z,4.1
2016-02-20T04:16:56.752Z,4.14
2016-02-20T04:17:56.989Z,4.16
2016-02-20T04:18:56.789Z,4.16
2016-02-20T04:19:56.822Z,4.12
2016-02-20T04:20:57.028Z,4.2
2016-02-20T04:22:16.033Z,4.13
2016-02-20T04:23:03.111Z,4.21
2016-02-20T04:24:22.539Z,4.24
2016-02-20T04:24:56.914Z,4.21
2016-02-20T04:26:28.201Z,4.2
2016-02-20T04:27:09.482Z,4.27
2016-02-20T04:28:06.468Z,4.25
2016-02-20T04:29:25.709Z,4.31
2016-02-20T04:30:19.227Z,4.28
2016-02-20T04:31:32.182Z,4.38
2016-02-20T04:32:25.717Z,4.3
2016-02-20T04:33:40.907Z,4.43
2016-02-20T04:34:26.207Z,4.38
2016-02-20T04:35:43.990Z,4.43
2016-02-20T04:36:27.868Z,4.36
2016-02-20T04:37:53.558Z,4.36
2016-02-20T04:38:31.984Z,4.42
2016-02-20T04:40:28.989Z,4.36
2016-02-20T04:40:41.551Z,4.43
2016-02-20T04:41:41.554Z,4.36
2016-02-20T04:42:54.306Z,4.4
2016-02-20T04:43:41.606Z,4.46
2016-02-20T04:45:07.343Z,4.46
2016-02-20T04:45:42.221Z,4.39
2016-02-20T04:47:56.803Z,4.45
2016-02-20T04:48:56.823Z,4.48
2016-02-20T04:50:09.575Z,4.43
2016-02-20T04:50:57.047Z,4.43
2016-02-20T04:52:53.864Z,4.53
2016-02-20T04:53:31.914Z,4.58
2016-02-20T04:54:19.213Z,4.52
2016-02-20T04:55:38.435Z,4.49
2016-02-20T04:56:25.360Z,4.52
2016-02-20T04:57:41.535Z,4.52
2016-02-20T04:58:51.474Z,4.56
2016-02-20T04:59:50.946Z,4.57
2016-02-20T05:01:03.371Z,4.57
2016-02-20T05:01:31.733Z,4.58
2016-02-20T05:02:31.751Z,4.63
2016-02-20T05:03:31.769Z,4.63
2016-02-20T05:04:31.757Z,4.61
2016-02-20T05:05:31.774Z,4.61
2016-02-20T05:06:31.777Z,4.66
2016-02-20T05:07:44.545Z,4.64
2016-02-20T05:08:31.814Z,4.76
2016-02-20T05:10:41.428Z,4.7
2016-02-20T05:11:54.119Z,4.64
2016-02-20T05:13:07.075Z,4.67
2016-02-20T05:14:10.170Z,4.74
2016-02-20T05:16:56.648Z,4.67
2016-02-20T05:17:25.384Z,4.68
2016-02-20T05:18:25.387Z,4.68
2016-02-20T05:19:40.562Z,4.71
2016-02-20T05:20:40.611Z,4.67
2016-02-20T05:21:53.350Z,4.63
2016-02-20T05:22:41.211Z,4.64
2016-02-20T05:23:59.838Z,4.67
2016-02-20T05:24:47.498Z,4.68
2016-02-20T05:26:06.344Z,4.61
2016-02-20T05:26:50.238Z,4.6
2016-02-20T05:28:09.443Z,4.56
2016-02-20T05:28:50.227Z,4.58
2016-02-20T05:30:16.089Z,4.58
2016-02-20T05:30:59.951Z,4.5
2016-02-20T05:33:30.740Z,4.52
2016-02-20T05:34:29.352Z,4.43
2016-02-20T05:35:48.574Z,4.4
2016-02-20T05:36:35.482Z,4.49
2016-02-20T05:38:00.688Z,4.43
2016-02-20T05:38:51.629Z,4.43
2016-02-20T05:40:35.931Z,4.36
2016-02-20T05:41:07.696Z,4.39
2016-02-20T05:42:07.809Z,4.46
2016-02-20T05:43:07.718Z,4.4
2016-02-20T05:44:20.504Z,4.34
2016-02-20T05:45:20.492Z,4.39
2016-02-20T05:46:33.447Z,4.31
2016-02-20T05:47:33.465Z,4.32
2016-02-20T05:48:43.014Z,4.36
2016-02-20T05:49:17.346Z,4.36
2016-02-20T05:50:17.411Z,4.3
2016-02-20T05:51:32.586Z,4.31
2016-02-20T05:52:32.604Z,4.3
2016-02-20T05:53:45.356Z,4.28
2016-02-20T05:54:33.250Z,4.22
2016-02-20T05:55:58.347Z,4.18
2016-02-20T05:56:42.209Z,4.22
2016-02-20T05:58:07.899Z,4.16
2016-02-20T05:58:54.994Z,4.1
2016-02-20T06:00:57.438Z,4.12
2016-02-20T06:01:57.487Z,4.16
2016-02-20T06:04:38.355Z,4.12
2016-02-20T06:05:12.730Z,4.1
2016-02-20T06:07:13.329Z,4.03
2016-02-20T06:08:12.738Z,4.14
2016-02-20T06:09:20.462Z,4.04
2016-02-20T06:10:12.790Z,4.12
2016-02-20T06:11:31.983Z,4
2016-02-20T06:12:13.404Z,4.09
2016-02-20T06:14:09.785Z,4.1
2016-02-20T06:14:44.398Z,4.13
2016-02-20T06:15:42.994Z,4.06
2016-02-20T06:16:55.106Z,4.09
2016-02-20T06:18:20.798Z,4.13
2016-02-20T06:19:02.080Z,4.07
2016-02-20T06:19:45.958Z,4.13
2016-02-20T06:21:05.195Z,4.14
2016-02-20T06:22:17.294Z,4.07
2016-02-20T06:23:08.309Z,4.14
2016-02-20T06:24:58.175Z,4.16
2016-02-20T06:25:17.067Z,4.25
2016-02-20T06:26:10.880Z,4.14
2016-02-20T06:27:23.527Z,4.09
2016-02-20T06:28:23.607Z,4.24
2016-02-20T06:30:07.828Z,4.22
2016-02-20T06:31:17.397Z,4.22
2016-02-20T06:32:26.946Z,4.22
2016-02-20T06:32:58.711Z,4.21
2016-02-20T06:34:08.246Z,4.3
2016-02-20T06:34:42.576Z,4.3
2016-02-20T06:37:23.475Z,4.38
2016-02-20T06:37:57.944Z,4.28
2016-02-20T06:40:00.434Z,4.32
2016-02-20T06:40:38.686Z,4.42
2016-02-20T06:41:13.014Z,4.39
2016-02-20T06:43:15.645Z,4.39
2016-02-20T06:43:54.038Z,4.43
2016-02-20T06:44:28.385Z,4.4
2016-02-20T06:47:09.123Z,4.34
2016-02-20T06:47:43.626Z,4.43
2016-02-20T06:48:43.676Z,4.4
2016-02-20T06:49:56.429Z,4.36
2016-02-20T06:51:14.978Z,4.4
2016-02-20T06:51:56.512Z,4.34
2016-02-20T06:52:43.703Z,4.4
2016-02-20T06:54:02.939Z,4.39
2016-02-20T06:55:09.053Z,4.42
2016-02-20T06:56:06.039Z,4.38
2016-02-20T06:57:21.294Z,4.42
2016-02-20T06:58:30.860Z,4.39
2016-02-20T06:59:05.203Z,4.52
2016-02-20T07:00:36.568Z,4.52
2016-02-20T07:01:14.818Z,4.5
2016-02-20T07:02:46.121Z,4.49
2016-02-20T07:03:21.169Z,4.58
2016-02-20T07:04:14.982Z,4.43
2016-02-20T07:05:27.613Z,4.56
2016-02-20T07:06:15.129Z,4.5
2016-02-20T07:07:14.943Z,4.58
2016-02-20T07:08:15.071Z,4.49
2016-02-20T07:09:14.979Z,4.53
2016-02-20T07:10:14.983Z,4.57
2016-02-20T07:11:14.985Z,4.64
2016-02-20T07:12:14.972Z,4.61
2016-02-20T07:13:27.712Z,4.66
2016-02-20T07:14:27.731Z,4.64
2016-02-20T07:15:15.074Z,4.7
2016-02-20T07:16:34.267Z,4.58
2016-02-20T07:17:15.111Z,4.75
2016-02-20T07:18:40.756Z,4.61
2016-02-20T07:19:15.084Z,4.67
2016-02-20T07:20:15.088Z,4.61
2016-02-20T07:21:15.262Z,4.7
2016-02-20T07:22:27.877Z,4.75
2016-02-20T07:23:15.095Z,4.75
2016-02-20T07:24:15.145Z,4.79
2016-02-20T07:25:15.180Z,4.75
2016-02-20T07:26:15.167Z,4.76
2016-02-20T07:27:15.185Z,4.78
2016-02-20T07:28:15.203Z,4.79
2016-02-20T07:29:15.236Z,4.75
2016-02-20T07:30:15.287Z,4.78
2016-02-20T07:31:15.258Z,4.71
2016-02-20T07:32:15.479Z,4.87
2016-02-20T07:33:15.279Z,4.76
2016-02-20T07:34:28.097Z,4.87
2016-02-20T07:35:15.316Z,4.79
2016-02-20T07:36:15.349Z,4.89
2016-02-20T07:37:15.353Z,4.76
2016-02-20T07:38:15.386Z,4.87
2016-02-20T07:39:15.404Z,4.83
2016-02-20T07:40:15.407Z,4.82
2016-02-20T07:41:15.504Z,4.89
2016-02-20T07:42:15.459Z,4.82
2016-02-20T07:43:15.462Z,4.89
2016-02-20T07:44:15.527Z,4.89
2016-02-20T07:45:21.782Z,4.83
2016-02-20T07:46:15.517Z,4.84
2016-02-20T07:47:15.567Z,4.87
2016-02-20T07:48:15.507Z,4.79
2016-02-20T07:49:15.540Z,4.83
2016-02-20T07:50:21.828Z,4.78
2016-02-20T07:51:15.593Z,4.79
2016-02-20T07:52:15.611Z,4.74
2016-02-20T07:53:15.614Z,4.79
2016-02-20T07:54:15.616Z,4.86
2016-02-20T07:55:15.651Z,4.78
2016-02-20T07:56:15.794Z,4.83
2016-02-20T07:57:15.656Z,4.87
2016-02-20T07:58:15.690Z,4.84
2016-02-20T07:59:15.708Z,4.89
2016-02-20T08:00:15.789Z,4.9
2016-02-20T08:01:28.341Z,4.9
2016-02-20T08:02:15.872Z,4.86
2016-02-20T08:03:15.750Z,4.98
2016-02-20T08:04:15.768Z,4.92
2016-02-20T08:05:15.803Z,4.95
2016-02-20T08:06:15.805Z,4.95
2016-02-20T08:07:15.824Z,4.98
2016-02-20T08:08:15.858Z,4.97
2016-02-20T08:09:15.876Z,4.97
2016-02-20T08:10:15.878Z,4.87
2016-02-20T08:11:15.897Z,4.94
2016-02-20T08:12:15.915Z,4.92
2016-02-20T08:13:28.764Z,4.98
2016-02-20T08:14:15.951Z,4.89
2016-02-20T08:15:35.207Z,5
2016-02-20T08:16:15.988Z,4.94
2016-02-20T08:17:15.990Z,4.94
2016-02-20T08:18:16.479Z,4.95
2016-02-20T08:19:28.780Z,4.98
2016-02-20T08:20:16.030Z,4.95
2016-02-20T08:21:35.254Z,4.92
2016-02-20T08:22:19.148Z,4.89
2016-02-20T08:23:19.166Z,4.89
2016-02-20T08:24:19.184Z,4.86
2016-02-20T08:25:19.187Z,5
2016-02-20T08:26:19.814Z,5.02
2016-02-20T08:27:19.225Z,4.98
2016-02-20T08:28:19.258Z,5.07
2016-02-20T08:29:19.244Z,5.01
2016-02-20T08:30:19.310Z,5.01
2016-02-20T08:31:19.266Z,5.04
2016-02-20T08:32:19.284Z,5.01
2016-02-20T08:33:19.318Z,5.08
2016-02-20T08:34:32.055Z,5.07
2016-02-20T08:35:19.339Z,5.04
2016-02-20T08:36:38.560Z,5.01
2016-02-20T08:37:19.392Z,5.16
2016-02-20T08:39:28.978Z,5.19
2016-02-20T08:40:29.001Z,5.16
2016-02-20T08:41:28.977Z,5.25
2016-02-20T08:42:28.968Z,5.22
2016-02-20T08:43:41.742Z,5.28
2016-02-20T08:44:29.005Z,5.29
2016-02-20T08:45:29.004Z,5.38
2016-02-20T08:46:41.752Z,5.4
2016-02-20T08:47:29.047Z,5.41
2016-02-20T08:48:29.031Z,5.29
2016-02-20T08:49:29.064Z,5.28
2016-02-20T08:50:29.081Z,5.29
2016-02-20T08:51:29.691Z,5.33
2016-02-20T08:52:41.895Z,5.4
2016-02-20T08:53:29.116Z,5.4
2016-02-20T08:54:29.133Z,5.41
2016-02-20T08:55:29.167Z,5.43
2016-02-20T08:56:41.935Z,5.36
2016-02-20T08:57:29.172Z,5.43
2016-02-20T08:58:29.221Z,5.4
2016-02-20T08:59:29.224Z,5.43
2016-02-20T09:00:29.257Z,5.4
2016-02-20T09:01:29.228Z,5.44
2016-02-20T09:02:29.277Z,5.43
2016-02-20T09:03:29.264Z,5.31
2016-02-20T09:04:29.298Z,5.33
2016-02-20T09:05:29.925Z,5.36
2016-02-20T09:06:29.319Z,5.38
2016-02-20T09:07:29.337Z,5.4
2016-02-20T09:08:29.356Z,5.38
2016-02-20T09:09:29.420Z,5.44
2016-02-20T09:10:29.377Z,5.44
2016-02-20T09:11:29.426Z,5.51
2016-02-20T09:12:29.413Z,5.47
2016-02-20T09:13:29.462Z,5.43
2016-02-20T09:14:29.450Z,5.44
2016-02-20T09:15:29.452Z,5.54
2016-02-20T09:16:29.471Z,5.58
2016-02-20T09:17:29.488Z,5.52
2016-02-20T09:18:29.507Z,5.46
2016-02-20T09:19:29.557Z,5.55
2016-02-20T09:20:29.574Z,5.52
2016-02-20T09:21:29.593Z,5.61
2016-02-20T09:22:29.596Z,5.44
2016-02-20T09:23:29.567Z,5.54
2016-02-20T09:24:29.680Z,5.49
2016-02-20T09:25:29.635Z,5.54
2016-02-20T09:26:29.653Z,5.52
2016-02-20T09:27:29.673Z,5.62
2016-02-20T09:28:29.690Z,5.61
2016-02-20T09:29:29.693Z,5.64
2016-02-20T09:30:29.727Z,5.64
2016-02-20T09:31:29.729Z,5.67
2016-02-20T09:32:29.732Z,5.64
2016-02-20T09:33:29.766Z,5.72
2016-02-20T09:34:42.550Z,5.65
2016-02-20T09:35:29.803Z,5.7
2016-02-20T09:36:49.025Z,5.7
2016-02-20T09:37:29.886Z,5.64
2016-02-20T09:38:29.842Z,5.61
2016-02-20T09:39:29.861Z,5.69
2016-02-20T09:40:29.878Z,5.7
2016-02-20T09:41:29.897Z,5.65
2016-02-20T09:42:29.916Z,5.65
2016-02-20T09:43:29.933Z,5.72
2016-02-20T09:44:29.936Z,5.64
2016-02-20T09:45:29.971Z,5.81
2016-02-20T09:46:31.394Z,5.79
2016-02-20T09:47:30.007Z,5.79
2016-02-20T09:48:30.119Z,5.69
2016-02-20T09:49:30.043Z,5.7
2016-02-20T09:50:31.452Z,5.65
2016-02-20T09:51:30.080Z,5.7
2016-02-20T09:52:29.536Z,5.74
2016-02-20T09:53:30.085Z,5.73
2016-02-20T09:54:30.120Z,5.73
2016-02-20T09:55:42.873Z,5.64
2016-02-20T09:56:30.156Z,5.8
2016-02-20T09:57:42.909Z,5.69
2016-02-20T09:58:30.193Z,5.74
2016-02-20T09:59:30.211Z,5.7
2016-02-20T10:00:30.215Z,5.8
2016-02-20T10:01:30.232Z,5.77
2016-02-20T10:02:30.110Z,5.73
2016-02-20T10:03:30.270Z,5.83
2016-02-20T10:04:30.303Z,5.77
2016-02-20T10:05:30.306Z,5.76
2016-02-20T10:06:30.308Z,5.83
2016-02-20T10:07:30.326Z,5.76
2016-02-20T10:08:30.328Z,5.76
2016-02-20T10:09:30.442Z,5.77
2016-02-20T10:10:30.413Z,5.77
2016-02-20T10:11:30.400Z,5.79
2016-02-20T10:12:43.122Z,5.87
2016-02-20T10:13:30.436Z,5.81
2016-02-20T10:14:30.424Z,5.79
2016-02-20T10:15:43.207Z,5.76
2016-02-20T10:16:30.632Z,5.77
2016-02-20T10:17:56.182Z,5.77
2016-02-20T10:18:43.294Z,5.84
2016-02-20T10:19:30.531Z,5.83
2016-02-20T10:20:31.205Z,5.87
2016-02-20T10:21:30.551Z,5.77
2016-02-20T10:22:30.649Z,5.88
2016-02-20T10:23:30.604Z,5.84
2016-02-20T10:24:30.637Z,5.84
2016-02-20T10:25:30.671Z,5.83
2016-02-20T10:26:30.643Z,5.97
2016-02-20T10:27:30.662Z,5.94
2016-02-20T10:28:30.665Z,6.02
2016-02-20T10:29:30.714Z,6.02
2016-02-20T10:30:30.717Z,6.1
2016-02-20T10:31:30.735Z,6.12
2016-02-20T10:32:30.753Z,6.13
2016-02-20T10:33:30.881Z,6.12
2016-02-20T10:34:30.773Z,6.2
2016-02-20T10:35:30.917Z,6.25
2016-02-20T10:36:30.795Z,6.2
2016-02-20T10:37:30.814Z,6.28
2016-02-20T10:38:30.863Z,6.31
2016-02-20T10:39:30.866Z,6.34
2016-02-20T10:40:30.900Z,6.36
2016-02-20T10:41:43.622Z,6.53
2016-02-20T10:42:30.936Z,6.56
2016-02-20T10:43:30.923Z,6.54
2016-02-20T10:44:30.973Z,6.67
2016-02-20T10:45:30.960Z,6.92
2016-02-20T10:46:30.994Z,6.96
2016-02-20T10:47:31.013Z,7.08
2016-02-20T10:48:31.015Z,7.1
2016-02-20T10:49:31.033Z,7.19
2016-02-20T10:50:31.067Z,7.22
2016-02-20T10:51:31.069Z,7.25
2016-02-20T10:52:31.135Z,7.18
2016-02-20T10:53:43.840Z,7.13
2016-02-20T10:54:31.109Z,7.05
2016-02-20T10:55:50.346Z,7.03
2016-02-20T10:56:31.162Z,7.05
2016-02-20T10:58:28.260Z,7.11
2016-02-20T10:59:06.542Z,7.05
2016-02-20T10:59:40.965Z,7.05
2016-02-20T11:01:12.203Z,7.25
2016-02-20T11:01:50.471Z,7.32
2016-02-20T11:03:53.087Z,7.8
2016-02-20T11:04:31.324Z,8.05
2016-02-20T11:05:05.684Z,8.2
2016-02-20T11:06:05.686Z,8.26
2016-02-20T11:07:05.720Z,8.36
2016-02-20T11:08:05.706Z,8.34
2016-02-20T11:09:11.990Z,8.34
2016-02-20T11:10:05.759Z,8.35
2016-02-20T11:11:05.761Z,8.17
2016-02-20T11:12:05.781Z,8.16
2016-02-20T11:13:05.830Z,8.14
2016-02-20T11:14:05.833Z,8.06
2016-02-20T11:15:05.851Z,8.03
2016-02-20T11:16:05.947Z,8.05
2016-02-20T11:17:05.887Z,8.01
2016-02-20T11:18:05.906Z,7.96
2016-02-20T11:19:05.939Z,7.98
2016-02-20T11:20:05.942Z,7.88
2016-02-20T11:21:18.680Z,7.95
2016-02-20T11:22:05.994Z,7.95
2016-02-20T11:23:31.685Z,7.95
2016-02-20T11:24:06.000Z,7.99
2016-02-20T11:25:37.349Z,8.09
2016-02-20T11:26:21.224Z,8.01
2016-02-20T11:27:21.399Z,7.96
2016-02-20T11:28:52.685Z,7.85
2016-02-20T11:30:02.297Z,7.95
2016-02-20T11:30:36.597Z,7.84
2016-02-20T11:31:36.693Z,7.95
2016-02-20T11:32:36.634Z,7.87
2016-02-20T11:33:36.652Z,8.02
2016-02-20T11:34:36.685Z,7.96
2016-02-20T11:35:36.687Z,7.87
2016-02-20T11:36:36.565Z,7.83
2016-02-20T11:37:36.740Z,7.84
2016-02-20T11:38:36.743Z,7.84
2016-02-20T11:39:49.528Z,7.72
2016-02-20T11:40:36.812Z,7.8
2016-02-20T11:41:36.798Z,7.66
2016-02-20T11:42:36.957Z,7.66
2016-02-20T11:43:36.835Z,7.5
2016-02-20T11:44:37.009Z,7.55
2016-02-20T11:45:36.871Z,7.56
2016-02-20T11:46:36.889Z,7.58
2016-02-20T11:47:36.908Z,7.51
2016-02-20T11:48:36.942Z,7.58
2016-02-20T11:49:37.039Z,7.78
2016-02-20T11:50:36.978Z,7.83
2016-02-20T11:51:37.013Z,7.98
2016-02-20T11:52:37.016Z,7.99
2016-02-20T11:53:37.033Z,8.23
2016-02-20T11:54:37.052Z,8.03
2016-02-20T11:55:37.085Z,8.05
2016-02-20T11:56:37.088Z,8.05
2016-02-20T11:57:37.107Z,8.01
2016-02-20T11:58:37.124Z,8.03
2016-02-20T11:59:37.127Z,8.06
2016-02-20T12:00:37.146Z,8.03
2016-02-20T12:01:37.180Z,8.08
2016-02-20T12:02:37.214Z,8.08
2016-02-20T12:03:37.217Z,8.11
2016-02-20T12:04:37.220Z,8.17
2016-02-20T12:05:37.238Z,8.34
2016-02-20T12:06:37.241Z,8.34
2016-02-20T12:07:37.306Z,8.35
2016-02-20T12:08:37.309Z,8.39
2016-02-20T12:09:37.312Z,8.35
2016-02-20T12:10:37.392Z,8.38
2016-02-20T12:11:37.363Z,8.38
2016-02-20T12:12:37.397Z,8.39
2016-02-20T12:13:37.415Z,8.34
2016-02-20T12:14:37.418Z,8.32
2016-02-20T12:15:50.170Z,8.27
2016-02-20T12:16:37.456Z,8.17
2016-02-20T12:18:03.144Z,8.23
2016-02-20T12:18:37.508Z,8.18
2016-02-20T12:20:37.543Z,8.2
2016-02-20T12:21:37.561Z,8.17
2016-02-20T12:22:37.564Z,8.18
2016-02-20T12:23:37.583Z,8.17
2016-02-20T12:24:37.617Z,8.08
2016-02-20T12:25:37.652Z,8.06
2016-02-20T12:26:37.622Z,8.08
2016-02-20T12:27:37.672Z,8.03
2016-02-20T12:28:37.690Z,8.08
2016-02-20T12:29:37.693Z,8.03
2016-02-20T12:30:37.742Z,7.98
2016-02-20T12:31:37.745Z,8.08
2016-02-20T12:32:37.779Z,8.09
2016-02-20T12:33:37.782Z,8.03
2016-02-20T12:34:37.801Z,7.99
2016-02-20T12:35:50.538Z,8.05
2016-02-20T12:36:37.821Z,8.18
2016-02-20T12:38:03.574Z,8.16
2016-02-20T12:38:37.858Z,8.17
2016-02-20T12:39:37.892Z,8.2
2016-02-20T12:40:37.895Z,8.17
2016-02-20T12:41:37.990Z,8.05
2016-02-20T12:42:37.947Z,8.08
2016-02-20T12:43:37.981Z,8.11
2016-02-20T12:44:37.984Z,8.09
2016-02-20T12:45:38.001Z,8.09
2016-02-20T12:46:37.989Z,8.14
2016-02-20T12:47:38.022Z,8.08
2016-02-20T12:48:38.025Z,8.2
2016-02-20T12:49:38.075Z,8.17
2016-02-20T12:50:38.078Z,8.21
2016-02-20T12:51:38.111Z,8.16
2016-02-20T12:52:38.130Z,8.2
2016-02-20T12:53:38.133Z,8.09
2016-02-20T12:54:38.166Z,8.02
2016-02-20T12:55:38.185Z,8.09
2016-02-20T12:56:38.235Z,8.02
2016-02-20T12:57:50.956Z,8.08
2016-02-20T12:58:38.240Z,8.02
2016-02-20T12:59:38.242Z,8.05
2016-02-20T13:00:38.371Z,8.17
2016-02-20T13:01:38.310Z,8.13
2016-02-20T13:02:38.329Z,8.23
2016-02-20T13:03:38.316Z,8.2
2016-02-20T13:04:38.365Z,8.23
2016-02-20T13:05:44.649Z,8.34
2016-02-20T13:06:38.402Z,8.36
2016-02-20T13:07:38.420Z,8.34
2016-02-20T13:08:38.423Z,8.34
2016-02-20T13:09:38.535Z,8.42
2016-02-20T13:10:38.443Z,8.35
2016-02-20T13:11:38.540Z,8.36
2016-02-20T13:12:38.495Z,8.32
2016-02-20T13:13:38.498Z,8.35
2016-02-20T13:14:38.548Z,8.27
2016-02-20T13:15:38.645Z,8.28
2016-02-20T13:16:38.679Z,8.32
2016-02-20T13:17:38.681Z,8.32
2016-02-20T13:18:51.465Z,8.24
2016-02-20T13:19:38.715Z,8.28
2016-02-20T13:20:38.687Z,8.23
2016-02-20T13:21:38.675Z,8.24
2016-02-20T13:22:39.302Z,8.23
2016-02-20T13:23:38.679Z,8.17
2016-02-20T13:24:38.854Z,8.16
2016-02-20T13:25:38.748Z,8.26
2016-02-20T13:26:38.844Z,8.14
2016-02-20T13:27:38.800Z,8.14
2016-02-20T13:28:38.787Z,8.2
2016-02-20T13:29:38.821Z,8.16
2016-02-20T13:30:38.855Z,8.14
2016-02-20T13:31:38.873Z,8.11
2016-02-20T13:32:38.860Z,8.11
2016-02-20T13:33:38.894Z,8.13
2016-02-20T13:34:38.913Z,8.03
2016-02-20T13:35:38.930Z,8.09
2016-02-20T13:36:38.949Z,8.03
2016-02-20T13:37:51.671Z,8.09
2016-02-20T13:38:51.721Z,8.05
2016-02-20T13:39:39.051Z,8.03
2016-02-20T13:40:39.022Z,8.02
2016-02-20T13:41:39.025Z,8.02
2016-02-20T13:42:39.060Z,8.06
2016-02-20T13:43:39.077Z,8.18
2016-02-20T13:44:39.096Z,8.2
2016-02-20T13:45:39.130Z,8.11
2016-02-20T13:46:39.274Z,8.24
2016-02-20T13:47:39.151Z,8.09
2016-02-20T13:48:39.185Z,8.08
2016-02-20T13:49:39.188Z,8.05
2016-02-20T13:50:39.221Z,8.06
2016-02-20T13:51:39.224Z,8.02
2016-02-20T13:52:39.243Z,8.09
2016-02-20T13:53:39.292Z,8.03
2016-02-20T13:54:39.279Z,8.06
2016-02-20T13:55:39.282Z,7.99
2016-02-20T13:56:39.316Z,8.06
2016-02-20T13:57:39.334Z,8.02
2016-02-20T13:58:39.368Z,8.09
2016-02-20T13:59:39.387Z,8.03
2016-02-20T14:00:39.389Z,8.03
2016-02-20T14:01:39.392Z,8.08
2016-02-20T14:02:39.425Z,8.13
2016-02-20T14:03:39.444Z,8.13
2016-02-20T14:04:39.462Z,8.11
2016-02-20T14:05:39.528Z,8.17
2016-02-20T14:06:39.547Z,8.17